Time;durP1;ratioP1;P1;durP2;ratioP2;P2;SDS_P1;SDS_P2;PMS_P1;PMS_P2;Temp;Humidity;BMP_temperature;BMP_pressure;BME280_temperature;BME280_humidity;BME280_pressure;Samples;Min_cycle;Max_cycle;Signal;HPM_P1;HPM_P2
2023/03/20 00:01:20;;;;;;;6.00;4.13;;;8.30;99.90;;;;;;5144701;27;20442;-67
2023/03/20 00:03:46;;;;;;;6.88;4.25;;;8.30;99.90;;;;;;5144472;27;20042;-66
2023/03/20 00:06:21;;;;;;;6.63;5.18;;;8.30;99.90;;;;;;5149831;27;20122;-66
2023/03/20 00:08:48;;;;;;;7.88;5.43;;;8.30;99.90;;;;;;5143933;27;20037;-66
2023/03/20 00:11:25;;;;;;;8.32;5.65;;;8.30;99.90;;;;;;5142854;27;20126;-66
2023/03/20 00:13:57;;;;;;;6.43;4.82;;;8.30;99.90;;;;;;5143545;27;20621;-66
2023/03/20 00:16:28;;;;;;;6.65;5.72;;;8.30;99.90;;;;;;5144889;27;20034;-66
2023/03/20 00:18:55;;;;;;;6.63;5.38;;;8.20;99.90;;;;;;5144779;27;20031;-66
2023/03/20 00:21:21;;;;;;;9.23;5.38;;;8.20;99.90;;;;;;5141251;27;20067;-66
2023/03/20 00:23:46;;;;;;;6.30;5.20;;;8.20;99.90;;;;;;5146143;27;20027;-65
2023/03/20 00:26:17;;;;;;;7.63;5.50;;;8.20;99.90;;;;;;5142180;27;20057;-66
2023/03/20 00:28:46;;;;;;;;;;;8.20;99.90;;;;;;5149376;27;20103;-66
2023/03/20 00:31:34;;;;;;;7.88;5.38;;;8.20;99.90;;;;;;5144569;27;20280;-66
2023/03/20 00:34:02;;;;;;;5.93;4.85;;;8.20;99.90;;;;;;5145817;27;20041;-66
2023/03/20 00:36:28;;;;;;;7.72;6.15;;;8.20;99.90;;;;;;5142203;27;20420;-66
2023/03/20 00:38:57;;;;;;;6.20;5.03;;;8.20;99.90;;;;;;5141086;27;20478;-65
2023/03/20 00:41:36;;;;;;;5.95;4.55;;;8.20;99.90;;;;;;5138071;27;20110;-66
2023/03/20 00:44:08;;;;;;;8.93;4.75;;;8.20;99.90;;;;;;5140176;27;20080;-66
2023/03/20 00:46:38;;;;;;;6.22;4.53;;;8.20;99.90;;;;;;5146013;27;20117;-66
2023/03/20 00:49:03;;;;;;;5.28;4.10;;;8.20;99.90;;;;;;5141890;27;20854;-65
2023/03/20 00:51:29;;;;;;;4.80;3.90;;;8.20;99.90;;;;;;5149490;27;20027;-66
2023/03/20 00:53:55;;;;;;;5.68;3.88;;;8.20;99.90;;;;;;5152904;27;20026;-66
2023/03/20 00:56:32;;;;;;;6.07;3.53;;;8.20;99.90;;;;;;5142767;27;20022;-66
2023/03/20 00:59:00;;;;;;;3.70;2.72;;;8.20;99.90;;;;;;5152780;27;20548;-65
2023/03/20 01:01:26;;;;;;;4.00;2.70;;;8.20;99.90;;;;;;5143280;27;20385;-66
2023/03/20 01:03:51;;;;;;;4.45;2.50;;;8.20;99.90;;;;;;5148097;27;20512;-66
2023/03/20 01:06:17;;;;;;;2.88;2.25;;;8.20;99.90;;;;;;5142802;27;20054;-66
2023/03/20 01:08:43;;;;;;;4.50;2.33;;;8.20;99.90;;;;;;5145735;27;20055;-66
2023/03/20 01:11:11;;;;;;;2.50;2.10;;;8.10;99.90;;;;;;5145193;27;20041;-66
2023/03/20 01:13:39;;;;;;;2.75;2.30;;;8.10;99.90;;;;;;5148995;27;20026;-66
2023/03/20 01:16:05;;;;;;;4.00;2.67;;;8.10;99.90;;;;;;5136468;27;20042;-64
2023/03/20 01:18:31;;;;;;;2.33;2.13;;;8.10;99.90;;;;;;5144534;27;20027;-64
2023/03/20 01:20:56;;;;;;;2.42;2.22;;;8.00;99.90;;;;;;5138758;27;20086;-64
2023/03/20 01:23:23;;;;;;;3.97;2.38;;;8.00;99.90;;;;;;5155335;27;20101;-64
2023/03/20 01:25:49;;;;;;;3.30;3.00;;;8.00;99.90;;;;;;5154384;27;20430;-64
2023/03/20 01:28:18;;;;;;;3.50;2.78;;;8.00;99.90;;;;;;5138469;27;20031;-64
2023/03/20 01:30:45;;;;;;;4.28;3.30;;;8.00;99.90;;;;;;5152120;27;20027;-64
2023/03/20 01:33:20;;;;;;;4.40;3.45;;;8.00;99.90;;;;;;5142676;27;20091;-64
2023/03/20 01:35:47;;;;;;;5.75;3.50;;;8.00;99.90;;;;;;5144359;27;20031;-64
2023/03/20 01:38:24;;;;;;;4.03;3.60;;;8.00;99.90;;;;;;5144459;27;20066;-64
2023/03/20 01:40:50;;;;;;;3.30;3.00;;;8.00;99.90;;;;;;5143629;27;20113;-64
2023/03/20 01:43:19;;;;;;;4.65;3.20;;;8.00;99.90;;;;;;5139251;27;20122;-64
2023/03/20 01:46:18;;;;;;;4.35;3.17;;;8.00;99.90;;;;;;5142015;27;20059;-64
2023/03/20 01:48:50;;;;;;;4.28;2.83;;;7.90;99.90;;;;;;5142504;27;20128;-64
2023/03/20 01:51:27;;;;;;;3.75;2.67;;;7.90;99.90;;;;;;5155431;27;20033;-64
2023/03/20 01:54:03;;;;;;;3.03;2.72;;;7.90;99.90;;;;;;5152346;27;20027;-65
2023/03/20 01:56:33;;;;;;;3.75;2.50;;;7.90;99.90;;;;;;5140545;27;20121;-65
2023/03/20 01:59:22;;;;;;;2.28;2.08;;;7.90;99.90;;;;;;5149247;27;20034;-65
2023/03/20 02:01:48;;;;;;;2.17;1.97;;;7.90;99.90;;;;;;5139137;27;20049;-65
2023/03/20 02:04:15;;;;;;;2.05;1.90;;;7.90;99.90;;;;;;5144849;27;20481;-66
2023/03/20 02:06:43;;;;;;;2.15;1.67;;;7.90;99.90;;;;;;5147226;27;20031;-65
2023/03/20 02:09:09;;;;;;;1.60;1.50;;;7.90;99.90;;;;;;5140310;27;20027;-65
2023/03/20 02:11:37;;;;;;;1.45;1.35;;;8.00;99.90;;;;;;5141026;27;20026;-65
2023/03/20 02:14:03;;;;;;;2.28;1.58;;;7.90;99.90;;;;;;5138683;27;20016;-65
2023/03/20 02:16:29;;;;;;;1.80;1.70;;;7.90;99.90;;;;;;5142752;27;20038;-65
2023/03/20 02:18:57;;;;;;;1.90;1.80;;;7.90;99.90;;;;;;5141576;27;20023;-65
2023/03/20 02:21:59;;;;;;;4.43;2.10;;;8.00;99.90;;;;;;5143433;27;20080;-65
2023/03/20 02:24:46;;;;;;;2.30;2.00;;;8.00;99.90;;;;;;5145050;27;20082;-66
2023/03/20 02:27:49;;;;;;;3.67;2.15;;;8.00;99.90;;;;;;5141103;27;20024;-66
2023/03/20 02:30:23;;;;;;;2.72;1.65;;;8.10;99.90;;;;;;5154196;27;20031;-65
2023/03/20 02:33:11;;;;;;;2.83;2.08;;;8.10;99.90;;;;;;5148623;27;20027;-65
2023/03/20 02:36:14;;;;;;;2.63;1.88;;;8.10;99.90;;;;;;5145886;27;20049;-66
2023/03/20 02:39:05;;;;;;;3.13;1.90;;;8.10;99.90;;;;;;5149134;27;20023;-65
2023/03/20 02:42:15;;;;;;;4.03;1.80;;;8.00;99.90;;;;;;5150473;27;20015;-66
2023/03/20 02:44:49;;;;;;;1.83;1.70;;;8.00;99.90;;;;;;5101868;27;20049;-65
2023/03/20 02:47:31;;;;;;;3.63;1.52;;;8.00;99.90;;;;;;5143805;27;20070;-65
2023/03/20 02:50:15;;;;;;;3.47;1.20;;;8.00;99.90;;;;;;5147970;27;20022;-65
2023/03/20 02:53:13;;;;;;;2.33;0.80;;;8.10;99.90;;;;;;5148618;27;20053;-65
2023/03/20 02:56:02;;;;;;;1.10;1.00;;;8.10;99.90;;;;;;5134741;27;20512;-66
2023/03/20 02:58:37;;;;;;;0.50;0.50;;;8.10;99.90;;;;;;5137662;27;20042;-66
2023/03/20 03:01:10;;;;;;;1.20;1.08;;;8.00;99.90;;;;;;5148659;27;20114;-65
2023/03/20 03:03:46;;;;;;;2.40;0.60;;;8.00;99.90;;;;;;5148447;27;20026;-66
2023/03/20 03:06:21;;;;;;;2.28;0.80;;;8.00;99.90;;;;;;5144032;27;20031;-66
2023/03/20 03:08:53;;;;;;;0.70;0.60;;;8.00;99.90;;;;;;5149859;27;20058;-65
2023/03/20 03:11:19;;;;;;;1.35;0.85;;;8.00;99.90;;;;;;5150120;27;20042;-66
2023/03/20 03:13:49;;;;;;;1.52;0.75;;;8.00;99.90;;;;;;5139538;27;20523;-65
2023/03/20 03:16:21;;;;;;;0.60;0.50;;;8.00;99.90;;;;;;5151214;27;20368;-65
2023/03/20 03:18:50;;;;;;;0.70;0.70;;;8.00;99.90;;;;;;5139831;27;20465;-65
2023/03/20 03:21:17;;;;;;;0.60;0.60;;;8.00;99.90;;;;;;5142793;27;20473;-65
2023/03/20 03:23:48;;;;;;;0.38;0.38;;;8.00;99.90;;;;;;5146608;27;20485;-65
2023/03/20 03:26:19;;;;;;;1.17;1.05;;;8.00;99.90;;;;;;5151696;27;20387;-66
2023/03/20 03:28:53;;;;;;;0.70;0.70;;;8.00;99.90;;;;;;5149504;27;20106;-65
2023/03/20 03:31:20;;;;;;;0.88;0.70;;;8.00;99.90;;;;;;5139751;27;20370;-66
2023/03/20 03:33:50;;;;;;;1.02;0.93;;;8.00;99.90;;;;;;5141208;27;20027;-66
2023/03/20 03:36:47;;;;;;;0.98;0.68;;;8.00;99.90;;;;;;5138563;27;20070;-66
2023/03/20 03:39:20;;;;;;;0.80;0.80;;;8.00;99.90;;;;;;5117566;27;20035;-65
2023/03/20 03:41:51;;;;;;;0.80;0.80;;;8.00;99.90;;;;;;5148870;27;20031;-65
2023/03/20 03:44:34;;;;;;;1.52;0.80;;;8.00;99.90;;;;;;5139273;27;20080;-66
2023/03/20 03:47:16;;;;;;;1.23;0.70;;;8.00;99.90;;;;;;5136536;27;20066;-66
2023/03/20 03:49:46;;;;;;;0.95;0.65;;;8.00;99.90;;;;;;5143022;27;20501;-65
2023/03/20 03:52:19;;;;;;;1.10;1.00;;;8.00;99.90;;;;;;5143528;27;20049;-66
2023/03/20 03:54:49;;;;;;;0.57;0.57;;;8.00;99.90;;;;;;5140162;27;20461;-65
2023/03/20 03:57:19;;;;;;;0.50;0.50;;;8.00;99.90;;;;;;5142039;27;20033;-65
2023/03/20 03:59:48;;;;;;;0.95;0.73;;;8.00;99.90;;;;;;5146572;27;20025;-65
2023/03/20 04:02:18;;;;;;;0.85;0.70;;;8.00;99.90;;;;;;5142217;27;20038;-65
2023/03/20 04:04:48;;;;;;;1.02;0.60;;;8.00;99.90;;;;;;5146739;27;20031;-65
2023/03/20 04:07:14;;;;;;;1.50;0.60;;;8.00;99.90;;;;;;5137732;27;20481;-65
2023/03/20 04:09:40;;;;;;;0.60;0.60;;;8.00;99.90;;;;;;5151805;27;20035;-68
2023/03/20 04:12:17;;;;;;;2.83;0.90;;;7.90;99.90;;;;;;5145982;27;20023;-66
2023/03/20 04:14:43;;;;;;;0.90;0.80;;;7.90;99.90;;;;;;5141957;27;20405;-65
2023/03/20 04:17:08;;;;;;;1.15;0.50;;;7.90;99.90;;;;;;5135308;27;20035;-67
2023/03/20 04:19:34;;;;;;;1.90;0.50;;;7.90;99.90;;;;;;5149428;27;20031;-68
2023/03/20 04:21:59;;;;;;;0.70;0.60;;;7.90;99.90;;;;;;5141013;27;20038;-65
2023/03/20 04:24:25;;;;;;;0.93;0.60;;;7.90;99.90;;;;;;5145445;27;20030;-66
2023/03/20 04:26:51;;;;;;;1.05;0.43;;;8.00;99.90;;;;;;5141185;27;20021;-65
2023/03/20 04:29:16;;;;;;;0.85;0.47;;;7.90;99.90;;;;;;5144523;27;20031;-64
2023/03/20 04:31:42;;;;;;;0.50;0.50;;;8.00;99.90;;;;;;5144255;27;20030;-65
2023/03/20 04:34:07;;;;;;;1.15;0.43;;;7.90;99.90;;;;;;5144228;27;20454;-65
2023/03/20 04:36:33;;;;;;;1.17;0.88;;;7.90;99.90;;;;;;5144465;27;20026;-65
2023/03/20 04:38:59;;;;;;;0.52;0.50;;;7.90;99.90;;;;;;5144610;27;20103;-65
2023/03/20 04:41:25;;;;;;;1.27;0.47;;;7.90;99.90;;;;;;5142822;27;20018;-66
2023/03/20 04:43:51;;;;;;;1.38;0.52;;;7.80;99.90;;;;;;5146675;27;20018;-66
2023/03/20 04:46:16;;;;;;;1.10;0.80;;;7.80;99.90;;;;;;5143766;27;20042;-66
2023/03/20 04:48:42;;;;;;;0.55;0.55;;;7.80;99.90;;;;;;5139480;27;20035;-66
2023/03/20 04:51:07;;;;;;;0.77;0.77;;;7.80;99.90;;;;;;5146217;27;20023;-65
2023/03/20 04:53:33;;;;;;;0.65;0.50;;;7.80;99.90;;;;;;5142324;27;20051;-65
2023/03/20 04:55:58;;;;;;;0.63;0.50;;;7.80;99.90;;;;;;5147774;27;20464;-65
2023/03/20 04:58:24;;;;;;;0.52;0.40;;;7.80;99.90;;;;;;5139811;27;20075;-66
2023/03/20 05:00:49;;;;;;;0.77;0.50;;;7.80;99.90;;;;;;5144337;27;20487;-65
2023/03/20 05:03:15;;;;;;;0.70;0.70;;;7.80;99.90;;;;;;5140495;27;20030;-66
2023/03/20 05:05:41;;;;;;;0.45;0.43;;;7.70;99.90;;;;;;5145712;27;20035;-65
2023/03/20 05:08:06;;;;;;;0.60;0.60;;;7.70;99.90;;;;;;5145702;27;20110;-65
2023/03/20 05:10:32;;;;;;;0.52;0.45;;;7.70;99.90;;;;;;5143026;27;20385;-66
2023/03/20 05:12:58;;;;;;;0.45;0.45;;;7.70;99.90;;;;;;5140495;27;20027;-65
2023/03/20 05:15:24;;;;;;;1.25;0.88;;;7.70;99.90;;;;;;5141787;27;20046;-65
2023/03/20 05:17:49;;;;;;;1.95;1.02;;;7.70;99.90;;;;;;5142596;27;20015;-65
2023/03/20 05:20:15;;;;;;;0.52;0.52;;;7.70;99.90;;;;;;5143850;27;20140;-66
2023/03/20 05:22:41;;;;;;;1.67;0.70;;;7.70;99.90;;;;;;5145187;27;20113;-65
2023/03/20 05:25:07;;;;;;;0.50;0.50;;;7.70;99.90;;;;;;5137801;27;20198;-65
2023/03/20 05:27:32;;;;;;;0.65;0.55;;;7.70;99.90;;;;;;5144567;27;20771;-65
2023/03/20 05:29:58;;;;;;;0.80;0.80;;;7.80;99.90;;;;;;5145891;27;20480;-65
2023/03/20 05:32:23;;;;;;;0.80;0.50;;;7.70;99.90;;;;;;5146729;27;20027;-65
2023/03/20 05:34:49;;;;;;;0.70;0.43;;;7.70;99.90;;;;;;5144754;27;20111;-65
2023/03/20 05:37:14;;;;;;;1.38;0.80;;;7.70;99.90;;;;;;5147253;27;20019;-65
2023/03/20 05:39:40;;;;;;;0.65;0.60;;;7.80;99.90;;;;;;5147972;27;20450;-65
2023/03/20 05:42:06;;;;;;;1.58;0.80;;;7.80;99.90;;;;;;5150310;27;20079;-65
2023/03/20 05:44:31;;;;;;;2.38;0.63;;;7.80;99.90;;;;;;5144954;27;20552;-67
2023/03/20 05:46:57;;;;;;;0.52;0.50;;;7.80;99.90;;;;;;5151977;27;20049;-66
2023/03/20 05:49:23;;;;;;;1.05;0.70;;;7.80;99.90;;;;;;5140546;27;20473;-66
2023/03/20 05:51:48;;;;;;;0.70;0.70;;;7.80;99.90;;;;;;5148659;27;20022;-65
2023/03/20 05:54:14;;;;;;;1.27;0.77;;;7.80;99.90;;;;;;5145075;27;20465;-65
2023/03/20 05:56:39;;;;;;;0.80;0.60;;;7.80;99.90;;;;;;5143940;27;20024;-66
2023/03/20 05:59:05;;;;;;;0.85;0.50;;;7.80;99.90;;;;;;5151725;27;20054;-66
2023/03/20 06:01:31;;;;;;;0.90;0.90;;;7.80;99.90;;;;;;5147343;27;20028;-67
2023/03/20 06:03:56;;;;;;;2.42;0.70;;;7.80;99.90;;;;;;5146448;27;20027;-65
2023/03/20 06:06:22;;;;;;;0.98;0.88;;;7.90;99.90;;;;;;5142585;27;20022;-66
2023/03/20 06:08:47;;;;;;;0.70;0.70;;;7.90;99.90;;;;;;5138659;27;20023;-66
2023/03/20 06:11:13;;;;;;;0.60;0.60;;;7.90;99.90;;;;;;5141626;27;20038;-66
2023/03/20 06:13:38;;;;;;;0.88;0.80;;;8.00;99.90;;;;;;5138249;27;20061;-66
2023/03/20 06:16:04;;;;;;;1.83;0.93;;;8.00;99.90;;;;;;5144628;27;20079;-67
2023/03/20 06:18:30;;;;;;;0.82;0.80;;;8.00;99.90;;;;;;5147920;27;20339;-67
2023/03/20 06:20:56;;;;;;;1.40;0.90;;;8.10;99.90;;;;;;5143297;27;20026;-65
2023/03/20 06:23:23;;;;;;;2.45;0.90;;;8.10;99.90;;;;;;5144726;27;20098;-66
2023/03/20 06:25:48;;;;;;;1.45;1.00;;;8.20;99.90;;;;;;5142886;27;20031;-65
2023/03/20 06:28:15;;;;;;;3.35;1.15;;;8.20;99.90;;;;;;5135431;27;20030;-65
2023/03/20 06:30:41;;;;;;;1.42;1.00;;;8.30;99.90;;;;;;5147892;27;20501;-67
2023/03/20 06:33:07;;;;;;;1.27;1.05;;;8.30;99.90;;;;;;5152807;27;20041;-67
2023/03/20 06:35:33;;;;;;;3.10;1.40;;;8.40;99.90;;;;;;5144259;27;20177;-67
2023/03/20 06:37:59;;;;;;;4.93;1.80;;;8.50;99.90;;;;;;5139316;27;20027;-65
2023/03/20 06:40:26;;;;;;;1.80;1.30;;;8.50;99.90;;;;;;5138314;27;20496;-66
2023/03/20 06:42:52;;;;;;;2.58;1.20;;;8.60;99.90;;;;;;5145114;27;20039;-66
2023/03/20 06:45:17;;;;;;;2.05;1.13;;;8.70;99.90;;;;;;5143469;27;20549;-67
2023/03/20 06:47:43;;;;;;;5.97;1.27;;;8.80;99.90;;;;;;5142751;27;20111;-66
2023/03/20 06:50:09;;;;;;;1.70;1.48;;;8.90;99.90;;;;;;5153977;27;20391;-74
2023/03/20 06:52:35;;;;;;;1.73;1.20;;;9.00;99.90;;;;;;5145929;27;20031;-73
2023/03/20 06:55:00;;;;;;;1.95;1.25;;;9.10;99.90;;;;;;5140015;27;20067;-73
2023/03/20 06:57:26;;;;;;;1.88;0.90;;;9.20;99.90;;;;;;5135125;27;20083;-72
2023/03/20 06:59:52;;;;;;;3.35;0.93;;;9.30;99.90;;;;;;5140957;27;20061;-71
2023/03/20 07:02:18;;;;;;;4.05;1.00;;;9.40;99.90;;;;;;5144950;27;20023;-71
2023/03/20 07:04:44;;;;;;;2.38;0.73;;;9.60;99.90;;;;;;5143863;27;20520;-71
2023/03/20 07:07:09;;;;;;;2.38;0.73;;;9.70;99.90;;;;;;5143196;27;20030;-66
2023/03/20 07:09:35;;;;;;;3.30;0.90;;;9.90;99.90;;;;;;5145189;27;20023;-70
2023/03/20 07:12:01;;;;;;;1.58;0.70;;;10.10;99.90;;;;;;5139620;27;20165;-66
2023/03/20 07:14:27;;;;;;;1.67;0.80;;;10.20;99.90;;;;;;5140606;27;20121;-71
2023/03/20 07:16:55;;;;;;;1.25;1.05;;;10.40;99.90;;;;;;5134803;27;20038;-67
2023/03/20 07:19:20;;;;;;;1.42;0.93;;;10.60;99.90;;;;;;5143469;27;20022;-68
2023/03/20 07:21:46;;;;;;;0.60;0.60;;;10.70;99.90;;;;;;5139927;27;20167;-65
2023/03/20 07:24:12;;;;;;;3.25;0.70;;;10.80;99.90;;;;;;5145712;27;20143;-68
2023/03/20 07:26:39;;;;;;;1.17;0.73;;;10.90;99.90;;;;;;5140376;27;20050;-67
2023/03/20 07:29:05;;;;;;;0.93;0.80;;;11.00;99.90;;;;;;5138121;27;20027;-70
2023/03/20 07:31:31;;;;;;;1.10;0.70;;;11.00;99.90;;;;;;5133577;27;20027;-66
2023/03/20 07:33:57;;;;;;;1.55;0.90;;;10.90;99.90;;;;;;5134084;27;20508;-66
2023/03/20 07:36:23;;;;;;;1.45;0.80;;;10.80;99.90;;;;;;5144735;27;20046;-65
2023/03/20 07:38:48;;;;;;;2.25;1.00;;;10.70;99.90;;;;;;5144866;27;20062;-66
2023/03/20 07:41:14;;;;;;;1.15;1.00;;;10.60;99.90;;;;;;5148222;27;20035;-66
2023/03/20 07:43:39;;;;;;;1.35;1.05;;;10.50;99.90;;;;;;5152182;27;20449;-67
2023/03/20 07:46:07;;;;;;;1.10;1.00;;;10.50;99.90;;;;;;5146630;27;20102;-71
2023/03/20 07:48:34;;;;;;;3.90;1.00;;;10.50;99.90;;;;;;5134628;27;20087;-72
2023/03/20 07:51:00;;;;;;;2.38;1.10;;;10.60;99.90;;;;;;5151590;27;20023;-73
2023/03/20 07:53:26;;;;;;;1.15;0.95;;;10.60;99.90;;;;;;5153074;27;20030;-71
2023/03/20 07:55:52;;;;;;;1.42;1.00;;;10.70;99.90;;;;;;5150324;27;20035;-68
2023/03/20 07:58:17;;;;;;;0.90;0.88;;;10.80;99.90;;;;;;5151761;27;20079;-65
2023/03/20 08:00:43;;;;;;;1.75;0.90;;;10.80;99.90;;;;;;5145435;27;20039;-66
2023/03/20 08:03:09;;;;;;;1.27;0.90;;;10.90;99.90;;;;;;5152228;27;20476;-67
2023/03/20 08:05:35;;;;;;;1.65;0.95;;;11.10;99.90;;;;;;5152156;27;20027;-66
2023/03/20 08:08:01;;;;;;;1.17;0.93;;;11.30;99.90;;;;;;5149761;27;20026;-66
2023/03/20 08:10:26;;;;;;;2.75;1.63;;;11.50;99.90;;;;;;5148567;27;20359;-66
2023/03/20 08:12:52;;;;;;;1.77;1.40;;;11.70;99.90;;;;;;5150878;27;20633;-66
2023/03/20 08:15:18;;;;;;;2.47;1.25;;;12.00;99.90;;;;;;5149355;27;20031;-66
2023/03/20 08:17:44;;;;;;;2.63;1.00;;;12.20;99.90;;;;;;5151809;27;20027;-65
2023/03/20 08:20:13;;;;;;;1.48;0.82;;;12.40;99.90;;;;;;5144563;27;20033;-68
2023/03/20 08:22:38;;;;;;;1.90;1.00;;;12.50;99.90;;;;;;5152426;27;20038;-67
2023/03/20 08:25:05;;;;;;;1.48;1.10;;;12.40;99.90;;;;;;5151020;27;20031;-66
2023/03/20 08:27:30;;;;;;;1.10;1.00;;;12.20;99.90;;;;;;5150685;27;20039;-66
2023/03/20 08:29:56;;;;;;;1.88;1.13;;;12.00;99.90;;;;;;5150364;27;20110;-66
2023/03/20 08:32:21;;;;;;;1.63;0.80;;;11.80;99.90;;;;;;5151287;27;20034;-66
2023/03/20 08:34:47;;;;;;;2.78;1.15;;;11.70;99.90;;;;;;5147710;27;20045;-66
2023/03/20 08:37:13;;;;;;;1.10;1.00;;;11.70;99.90;;;;;;5151676;27;20027;-66
2023/03/20 08:39:39;;;;;;;2.17;1.00;;;11.80;99.90;;;;;;5152244;27;20025;-66
2023/03/20 08:42:05;;;;;;;3.13;1.13;;;11.90;99.90;;;;;;5150493;27;20038;-66
2023/03/20 08:44:31;;;;;;;1.15;0.85;;;12.10;99.90;;;;;;5148503;27;20034;-66
2023/03/20 08:46:57;;;;;;;1.20;1.00;;;12.20;99.90;;;;;;5132846;27;20055;-66
2023/03/20 08:49:23;;;;;;;1.35;1.10;;;12.20;99.90;;;;;;5137572;27;20022;-66
2023/03/20 08:51:48;;;;;;;0.95;0.93;;;12.30;99.90;;;;;;5129674;27;20031;-65
2023/03/20 08:54:17;;;;;;;4.30;1.10;;;12.40;99.90;;;;;;5123649;27;20019;-66
2023/03/20 08:56:44;;;;;;;0.98;0.93;;;12.50;99.90;;;;;;5137643;27;20383;-65
2023/03/20 08:59:10;;;;;;;2.92;0.93;;;12.50;99.90;;;;;;5133834;27;20482;-66
2023/03/20 09:01:36;;;;;;;1.10;0.90;;;12.50;99.90;;;;;;5134972;27;20034;-65
2023/03/20 09:04:02;;;;;;;1.58;0.80;;;12.70;99.90;;;;;;5129463;27;20034;-66
2023/03/20 09:06:28;;;;;;;1.23;1.10;;;12.70;99.90;;;;;;5142757;27;20035;-66
2023/03/20 09:08:55;;;;;;;0.98;0.80;;;12.70;99.90;;;;;;5120943;27;20031;-68
2023/03/20 09:11:21;;;;;;;2.70;1.05;;;12.60;99.90;;;;;;5140346;27;20434;-66
2023/03/20 09:13:47;;;;;;;1.60;0.80;;;12.70;99.90;;;;;;5136936;27;20051;-66
2023/03/20 09:16:13;;;;;;;1.83;0.90;;;12.80;99.90;;;;;;5140828;27;20074;-66
2023/03/20 09:18:38;;;;;;;0.90;0.90;;;12.70;99.90;;;;;;5139519;27;20023;-66
2023/03/20 09:21:04;;;;;;;2.00;0.88;;;12.90;99.90;;;;;;5135269;27;20034;-66
2023/03/20 09:23:30;;;;;;;1.20;1.05;;;13.00;99.90;;;;;;5142330;27;20059;-65
2023/03/20 09:25:56;;;;;;;5.40;1.33;;;13.10;99.90;;;;;;5136802;27;20045;-67
2023/03/20 09:28:22;;;;;;;2.17;1.40;;;13.10;99.90;;;;;;5128257;27;20019;-67
2023/03/20 09:30:48;;;;;;;1.02;0.82;;;13.20;99.90;;;;;;5141207;27;20031;-67
2023/03/20 09:33:13;;;;;;;0.88;0.75;;;13.20;99.90;;;;;;5138030;27;20027;-67
2023/03/20 09:35:39;;;;;;;1.42;0.95;;;13.20;99.90;;;;;;5137084;27;20469;-67
2023/03/20 09:38:05;;;;;;;2.13;0.82;;;13.30;99.90;;;;;;5139103;27;20023;-67
2023/03/20 09:40:50;;;;;;;0.98;0.95;;;13.50;99.90;;;;;;5136294;27;20483;-65
2023/03/20 09:43:41;;;;;;;1.00;0.85;;;13.60;99.90;;;;;;5128988;27;20063;-65
2023/03/20 09:46:19;;;;;;;2.25;1.17;;;13.80;99.90;;;;;;5137383;27;20046;-67
2023/03/20 09:48:53;;;;;;;1.35;1.20;;;13.90;99.90;;;;;;5137776;27;20030;-66
2023/03/20 09:51:43;;;;;;;6.65;1.08;;;14.00;99.90;;;;;;5139956;27;20076;-68
2023/03/20 09:54:24;;;;;;;2.80;1.55;;;14.10;99.90;;;;;;5134322;27;20586;-67
2023/03/20 09:56:53;;;;;;;4.25;1.20;;;14.20;99.90;;;;;;5137564;27;20074;-67
2023/03/20 09:59:20;;;;;;;1.35;1.00;;;14.30;99.90;;;;;;5137670;27;20035;-65
2023/03/20 10:02:04;;;;;;;2.60;1.10;;;14.40;99.90;;;;;;5128325;27;20028;-65
2023/03/20 10:04:29;;;;;;;3.08;1.50;;;14.50;99.90;;;;;;5136363;27;20031;-65
2023/03/20 10:06:55;;;;;;;1.90;1.50;;;14.60;99.90;;;;;;5141938;27;20023;-67
2023/03/20 10:09:27;;;;;;;1.48;1.25;;;14.60;99.90;;;;;;5134673;27;20042;-65
2023/03/20 10:12:09;;;;;;;2.05;1.65;;;14.60;99.90;;;;;;5134090;27;20366;-65
2023/03/20 10:14:44;;;;;;;2.90;1.90;;;14.50;99.90;;;;;;5132986;27;20503;-65
2023/03/20 10:17:25;;;;;;;3.45;1.40;;;14.50;99.90;;;;;;5132001;27;20061;-65
2023/03/20 10:19:56;;;;;;;3.17;1.60;;;14.50;99.90;;;;;;5129135;27;20084;-65
2023/03/20 10:22:34;;;;;;;2.00;1.25;;;14.60;99.90;;;;;;5129615;27;20043;-66
2023/03/20 10:25:20;;;;;;;2.53;1.50;;;14.60;99.90;;;;;;5128112;27;20045;-66
2023/03/20 10:27:51;;;;;;;1.42;1.05;;;14.50;99.90;;;;;;5137246;27;20117;-65
2023/03/20 10:30:48;;;;;;;5.05;1.40;;;14.40;99.90;;;;;;5127246;27;20091;-68
2023/03/20 10:33:29;;;;;;;1.90;1.50;;;14.20;99.90;;;;;;5139986;27;20035;-65
2023/03/20 10:35:54;;;;;;;2.35;1.40;;;14.00;99.90;;;;;;5134600;27;20079;-66
2023/03/20 10:38:39;;;;;;;1.20;1.10;;;13.70;99.90;;;;;;5134898;27;20556;-67
2023/03/20 10:41:12;;;;;;;3.88;1.48;;;13.50;99.90;;;;;;5134324;27;20613;-65
2023/03/20 10:43:41;;;;;;;5.88;1.70;;;13.30;99.90;;;;;;5132757;27;20027;-66
2023/03/20 10:46:18;;;;;;;3.22;1.25;;;13.10;99.90;;;;;;5135055;27;20036;-65
2023/03/20 10:49:05;;;;;;;2.13;1.50;;;13.00;99.90;;;;;;5124466;27;20054;-64
2023/03/20 10:51:42;;;;;;;1.25;1.08;;;12.80;99.90;;;;;;5127123;27;20059;-66
2023/03/20 10:54:17;;;;;;;3.55;1.20;;;12.70;99.90;;;;;;5128246;27;20020;-66
2023/03/20 10:56:46;;;;;;;1.23;0.90;;;12.60;99.90;;;;;;5128901;27;20042;-64
2023/03/20 10:59:39;;;;;;;1.85;0.93;;;12.60;99.90;;;;;;5128416;27;20037;-66
2023/03/20 11:02:13;;;;;;;1.85;0.88;;;12.50;99.90;;;;;;5131317;27;20066;-66
2023/03/20 11:04:39;;;;;;;3.38;1.88;;;12.40;99.90;;;;;;5122175;27;20027;-65
2023/03/20 11:07:18;;;;;;;4.20;1.52;;;12.40;99.90;;;;;;5125560;27;20173;-66
2023/03/20 11:09:43;;;;;;;3.97;1.67;;;12.40;99.90;;;;;;5130151;27;20126;-65
2023/03/20 11:12:18;;;;;;;3.35;1.67;;;12.40;99.90;;;;;;5131632;27;20111;-65
2023/03/20 11:14:44;;;;;;;3.70;1.55;;;12.50;99.90;;;;;;5127828;27;20039;-68
2023/03/20 11:17:11;;;;;;;2.63;1.60;;;12.40;99.90;;;;;;5127452;27;20091;-66
2023/03/20 11:19:39;;;;;;;2.90;2.08;;;12.50;99.90;;;;;;5129630;27;20023;-66
2023/03/20 11:22:25;;;;;;;3.65;2.28;;;12.60;99.90;;;;;;5124472;27;20090;-65
2023/03/20 11:24:53;;;;;;;34.22;16.85;;;12.90;99.90;;;;;;5119873;27;20045;-66
2023/03/20 11:27:25;;;;;;;3.90;3.05;;;13.00;99.90;;;;;;5130183;27;20042;-66
2023/03/20 11:29:53;;;;;;;3.47;3.05;;;13.20;99.90;;;;;;5121296;27;20164;-65
2023/03/20 11:32:34;;;;;;;4.32;3.45;;;13.20;99.90;;;;;;5127225;27;20030;-65
2023/03/20 11:35:18;;;;;;;4.47;3.47;;;13.20;99.90;;;;;;5116419;27;20039;-66
2023/03/20 11:37:46;;;;;;;6.43;4.00;;;13.10;99.90;;;;;;5126896;27;20035;-65
2023/03/20 11:40:16;;;;;;;5.47;4.07;;;13.20;99.90;;;;;;5129159;27;20031;-66
2023/03/20 11:43:11;;;;;;;5.90;3.70;;;13.30;99.90;;;;;;5124239;27;20043;-66
2023/03/20 11:45:57;;;;;;;8.63;4.25;;;13.40;99.90;;;;;;5125450;27;20039;-67
2023/03/20 11:48:38;;;;;;;6.05;4.53;;;13.50;99.90;;;;;;5147729;27;20070;-66
2023/03/20 11:51:07;;;;;;;4.35;3.60;;;13.60;99.90;;;;;;5149327;27;20128;-67
2023/03/20 11:53:38;;;;;;;5.57;4.00;;;13.60;99.90;;;;;;5143925;27;20478;-66
2023/03/20 11:56:09;;;;;;;6.63;4.10;;;13.60;99.90;;;;;;5151300;27;20109;-68
2023/03/20 11:58:45;;;;;;;4.97;4.05;;;13.70;99.90;;;;;;5152695;27;20023;-68
2023/03/20 12:01:12;;;;;;;5.97;3.85;;;13.70;99.90;;;;;;5141208;27;20888;-68
2023/03/20 12:03:56;;;;;;;4.93;3.70;;;13.80;99.90;;;;;;5150589;27;20095;-68
2023/03/20 12:06:26;;;;;;;5.93;4.45;;;13.90;99.90;;;;;;5144396;27;20074;-68
2023/03/20 12:09:03;;;;;;;6.25;3.88;;;14.00;99.90;;;;;;5151752;27;20031;-67
2023/03/20 12:11:55;;;;;;;5.15;4.07;;;14.00;99.90;;;;;;5151819;27;20026;-68
2023/03/20 12:14:32;;;;;;;5.60;4.53;;;14.10;99.90;;;;;;5148985;27;20027;-68
2023/03/20 12:17:15;;;;;;;5.63;3.75;;;14.30;99.90;;;;;;5151052;27;20027;-69
2023/03/20 12:19:42;;;;;;;6.78;4.07;;;14.50;99.90;;;;;;5151986;27;20039;-67
2023/03/20 12:22:21;;;;;;;6.13;4.75;;;14.80;99.90;;;;;;5151508;27;20027;-68
2023/03/20 12:25:26;;;;;;;6.38;4.95;;;15.00;99.90;;;;;;5151065;27;20065;-67
2023/03/20 12:28:02;;;;;;;5.65;4.30;;;15.20;99.90;;;;;;5142820;27;20039;-68
2023/03/20 12:30:53;;;;;;;5.07;4.35;;;15.60;99.90;;;;;;5144412;27;20082;-68
2023/03/20 12:33:35;;;;;;;6.00;4.35;;;15.60;99.90;;;;;;5151655;27;20026;-69
2023/03/20 12:36:02;;;;;;;5.07;4.00;;;15.80;99.90;;;;;;5137956;27;20039;-68
2023/03/20 12:38:33;;;;;;;5.50;4.30;;;15.60;99.90;;;;;;5140690;27;20023;-69
2023/03/20 12:41:13;;;;;;;5.75;4.35;;;15.50;99.90;;;;;;5130401;27;20035;-68
2023/03/20 12:43:58;;;;;;;;;;;15.30;99.90;;;;;;5152700;27;20042;-68
2023/03/20 12:46:45;;;;;;;5.50;4.03;;;15.00;99.90;;;;;;5135758;27;19916;-69
2023/03/20 12:49:46;;;;;;;6.90;3.90;;;14.70;99.90;;;;;;5123423;28;20047;-69
2023/03/20 12:52:42;;;;;;;5.60;4.00;;;14.60;99.90;;;;;;5098667;28;20051;-69
2023/03/20 12:55:08;;;;;;;5.75;3.80;;;14.60;99.90;;;;;;5086468;28;20035;-68
2023/03/20 12:57:50;;;;;;;4.63;3.60;;;14.80;99.90;;;;;;5122473;28;20031;-67
2023/03/20 13:00:41;;;;;;;6.75;4.35;;;15.00;99.90;;;;;;5120340;28;20102;-67
2023/03/20 13:03:44;;;;;;;5.20;3.58;;;15.30;99.90;;;;;;5121600;28;20079;-69
2023/03/20 13:06:18;;;;;;;5.32;4.30;;;15.40;99.90;;;;;;5125814;28;20062;-68
2023/03/20 13:08:59;;;;;;;5.63;3.60;;;15.50;99.90;;;;;;5125710;28;20770;-66
2023/03/20 13:12:00;;;;;;;5.07;4.10;;;15.60;99.90;;;;;;5128637;28;20050;-67
2023/03/20 13:14:29;;;;;;;5.20;4.00;;;15.50;99.90;;;;;;5100572;28;20076;-67